Latest Weather Observations for Darwin Airport

IDD60901

Issued at 8:21 am CST Tuesday 22 January 2019 (issued every 10 minutes, with the page automatically refreshed every 10 minutes)

About weather observations | Map of Darwin area stations | Latest observations for Darwin area | Other Formats
Station Details ID: 014015 Name: DARWIN AIRPORT Lat: -12.42 Lon: 130.89 Height: 30.4 m
Data from the previous 72 hours. | See also: Recent months at Darwin Airport
Date/Time
CST
Temp
°C
App
Temp
°C
Dew
Point
°C
Rel
Hum
%
Delta-T
°C
Wind Press
QNH
hPa
Press
MSL
hPa
Rain since
9am
mm
Dir  Spd
km/h
Gust
km/h
Spd
kts
Gust
kts
22/08:00am 26.1 29.5 24.7 92 1.0 ENE 15 20 8 11 1006.8 1006.5 0.6
22/07:30am 26.0 29.7 24.6 92 1.0 E 13 17 7 9 1006.4 1006.1 0.6
22/07:00am 26.0 30.6 24.7 92 0.9 ENE 9 13 5 7 1006.0 1005.7 0.6
22/06:30am 25.9 30.5 24.8 94 0.8 E 9 13 5 7 1005.9 1005.6 0.6
22/06:00am 25.9 30.1 24.8 94 0.8 ESE 11 15 6 8 1005.7 1005.4 0.6
22/05:30am 25.8 30.0 24.7 94 0.8 E 11 13 6 7 1005.4 1005.1 0.6
22/05:00am 25.8 29.9 24.5 92 0.9 E 11 13 6 7 1005.4 1005.1 0.6
22/04:30am 26.0 29.6 24.4 91 1.1 E 13 15 7 8 1005.4 1005.1 0.6
22/04:00am 26.0 30.5 24.6 92 1.0 E 9 11 5 6 1005.4 1005.1 0.6
22/03:30am 25.7 29.7 24.4 92 0.9 E 11 13 6 7 1005.5 1005.2 0.6
22/03:00am 25.8 30.0 24.8 94 0.7 ENE 11 15 6 8 1005.6 1005.3 0.6
22/02:30am 26.2 29.9 24.5 90 1.2 ENE 13 19 7 10 1006.1 1005.8 0.4
22/02:27am 26.3 30.1 24.7 91 1.1 E 13 19 7 10 1006.1 1005.8 0.4
22/02:20am 26.8 30.6 24.1 85 1.9 E 11 15 6 8 1006.1 1005.8 0.2
22/02:00am 27.0 31.5 24.6 87 1.7 ESE 9 11 5 6 1006.3 1006.0 0.2
22/01:30am 27.4 32.7 25.8 91 1.1 ESE 9 11 5 6 1006.6 1006.3 0.2
22/01:00am 27.5 33.1 25.7 90 1.3 E 7 11 4 6 1006.7 1006.4 0.2
22/12:30am 27.6 32.7 25.6 89 1.4 NE 9 15 5 8 1007.0 1006.7 0.2
22/12:00am 27.7 33.4 25.9 90 1.3 ENE 7 9 4 5 1007.1 1006.8 0.2
 
Date/Time
CST
Temp
°C
App
Temp
°C
Dew
Point
°C
Rel
Hum
%
Delta-T
°C
Wind Press
QNH
hPa
Press
MSL
hPa
Rain since
9am
mm
Dir  Spd
km/h
Gust
km/h
Spd
kts
Gust
kts
21/11:30pm 28.0 33.3 25.9 88 1.5 ENE 9 11 5 6 1007.1 1006.8 0.2
21/11:00pm 28.1 33.4 25.8 87 1.6 ENE 9 11 5 6 1007.2 1006.9 0.2
21/10:30pm 28.4 33.2 25.7 85 1.9 ENE 11 13 6 7 1007.2 1006.9 0.2
21/10:00pm 28.7 33.4 25.6 83 2.2 E 11 15 6 8 1007.2 1006.9 0.2
21/09:30pm 28.7 33.4 25.6 83 2.2 ENE 11 15 6 8 1006.9 1006.6 0.2
21/09:00pm 28.9 33.6 25.5 82 2.4 NE 11 15 6 8 1006.5 1006.2 0.2
21/08:30pm 29.2 33.4 25.4 80 2.7 NE 13 19 7 10 1006.1 1005.8 0.2
21/08:00pm 29.3 32.8 25.5 80 2.7 NE 17 22 9 12 1005.7 1005.4 0.2
21/07:30pm 29.5 32.6 25.4 78 2.9 NNE 19 24 10 13 1005.0 1004.7 0.2
21/07:00pm 30.3 32.5 24.3 70 4.2 NNE 20 26 11 14 1004.9 1004.6 0.2
21/06:30pm 30.8 32.8 24.5 69 4.4 NNE 22 30 12 16 1004.7 1004.4 0.2
21/06:00pm 31.4 33.7 24.4 66 4.9 NNE 20 28 11 15 1004.3 1004.0 0.2
21/05:30pm 32.1 33.8 24.1 62 5.6 NNE 22 30 12 16 1004.0 1003.7 0.2
21/05:00pm 32.7 34.7 24.6 62 5.7 NNE 22 30 12 16 1003.5 1003.2 0.2
21/04:30pm 32.7 34.9 24.3 61 5.9 N 20 28 11 15 1003.5 1003.2 0.2
21/04:00pm 32.6 33.9 23.4 58 6.4 NNE 22 37 12 20 1003.9 1003.6 0.2
21/03:30pm 33.1 34.0 23.3 56 6.8 NE 24 39 13 21 1003.7 1003.4 0.2
21/03:00pm 33.4 34.1 22.3 52 7.6 NE 22 35 12 19 1004.1 1003.8 0.2
21/02:30pm 32.9 34.3 22.8 55 7.0 ENE 20 32 11 17 1004.4 1004.1 0.2
21/02:00pm 32.7 33.5 23.2 57 6.6 ENE 24 35 13 19 1005.0 1004.7 0.2
21/01:30pm 33.4 34.6 23.2 55 7.1 ENE 22 32 12 17 1005.5 1005.2 0.2
21/01:00pm 32.3 34.2 23.5 59 6.1 ENE 19 28 10 15 1005.9 1005.6 0.2
21/12:30pm 32.4 33.5 23.6 59 6.1 ENE 24 33 13 18 1006.3 1006.0 0.2
21/12:00pm 31.9 33.9 23.9 62 5.6 ENE 20 30 11 16 1006.5 1006.2 0.2
21/11:30am 31.3 34.5 24.9 69 4.5 NE 17 24 9 13 1006.7 1006.4 0.2
21/11:00am 30.4 34.0 24.4 70 4.2 ENE 13 20 7 11 1006.8 1006.5 0.2
21/10:30am 29.7 32.0 24.4 73 3.7 E 20 26 11 14 1007.0 1006.7 0.2
21/10:00am 29.4 33.4 25.1 77 3.0 E 13 19 7 10 1007.1 1006.8 0.2
21/09:30am 28.9 32.4 24.9 79 2.8 E 15 20 8 11 1007.0 1006.7 0.2
21/09:00am 28.3 32.4 25.2 83 2.2 ESE 13 19 7 10 1006.7 1006.4 16.0
21/08:30am 27.4 30.9 24.8 86 1.8 ESE 15 19 8 10 1006.6 1006.3 16.0
21/08:00am 27.0 29.6 24.6 87 1.7 ESE 19 24 10 13 1006.5 1006.2 16.0
21/07:30am 27.0 30.2 24.4 86 1.8 ESE 15 19 8 10 1006.2 1005.9 16.0
21/07:00am 26.5 30.1 24.3 88 1.5 ESE 13 19 7 10 1005.9 1005.6 16.0
21/06:30am 26.3 29.7 24.1 88 1.5 ESE 13 19 7 10 1005.5 1005.2 16.0
21/06:00am 26.3 30.3 24.4 89 1.3 ESE 11 13 6 7 1005.4 1005.1 16.0
21/05:30am 26.1 31.3 25.1 94 0.7 E 7 9 4 5 1005.3 1005.0 16.0
21/05:00am 26.1 31.4 25.2 95 0.6 ENE 7 9 4 5 1005.1 1004.8 16.0
21/04:30am 26.3 30.9 25.3 94 0.7 ENE 11 15 6 8 1005.2 1004.9 16.0
21/04:00am 26.5 31.4 25.2 92 0.9 E 9 11 5 6 1005.4 1005.1 16.0
21/03:30am 26.6 31.9 25.3 93 0.9 E 7 11 4 6 1005.5 1005.2 16.0
21/03:00am 26.8 31.7 25.2 91 1.1 E 9 11 5 6 1005.5 1005.2 16.0
21/02:30am 26.8 31.7 25.2 91 1.1 ESE 9 11 5 6 1005.9 1005.6 16.0
21/02:00am 26.8 31.7 25.2 91 1.1 ESE 9 13 5 7 1006.1 1005.8 16.0
21/01:30am 26.8 31.8 25.4 92 1.0 E 9 13 5 7 1006.6 1006.3 16.0
21/01:00am 26.7 31.9 25.7 94 0.7 E 9 11 5 6 1007.0 1006.7 16.0
21/12:30am 26.8 32.6 25.8 94 0.7 ENE 6 6 3 3 1007.4 1007.1 16.0
21/12:00am 26.9 32.4 25.6 93 0.9 E 7 9 4 5 1007.7 1007.4 16.0
 
Date/Time
CST
Temp
°C
App
Temp
°C
Dew
Point
°C
Rel
Hum
%
Delta-T
°C
Wind Press
QNH
hPa
Press
MSL
hPa
Rain since
9am
mm
Dir  Spd
km/h
Gust
km/h
Spd
kts
Gust
kts
20/11:30pm 26.7 32.0 25.3 92 1.0 ENE 7 11 4 6 1008.0 1007.7 16.0
20/11:00pm 26.7 32.4 25.6 94 0.8 E 6 7 3 4 1008.2 1007.9 16.0
20/10:43pm 26.8 31.4 25.4 92 1.0 ENE 11 13 6 7 1008.2 1007.9 16.0
20/10:30pm 27.0 32.4 25.4 91 1.1 ENE 7 9 4 5 1008.2 1007.9 16.0
20/10:22pm 27.1 32.7 25.4 90 1.2 ENE 6 9 3 5 1008.3 1008.0 16.0
20/10:00pm 27.2 32.8 25.5 90 1.2 ENE 6 9 3 5 1008.0 1007.7 16.0
20/09:30pm 27.3 33.2 25.3 89 1.4 ENE 4 6 2 3 1007.5 1007.2 16.0
20/09:00pm 27.7 33.4 25.0 85 1.9 ENE 4 6 2 3 1007.2 1006.9 15.8
20/08:30pm 27.3 33.2 25.3 89 1.4 NE 4 4 2 2 1006.7 1006.4 15.8
20/08:00pm 27.3 33.6 25.3 89 1.4 ENE 2 4 1 2 1006.3 1006.0 15.8
20/07:30pm 27.6 32.9 25.0 86 1.8 ESE 6 9 3 5 1006.4 1006.1 15.8
20/07:00pm 28.3 32.3 25.0 82 2.3 E 13 20 7 11 1006.1 1005.8 15.8
20/06:30pm 28.2 34.0 25.7 86 1.8 NE 6 9 3 5 1005.6 1005.3 15.8
20/06:00pm 28.3 35.3 25.9 87 1.7 CALM 0 0 0 0 1005.3 1005.0 15.8
20/05:30pm 28.3 34.8 25.0 82 2.3 CALM 0 2 0 1 1005.0 1004.7 15.8
20/05:00pm 27.1 32.7 24.8 87 1.6 ESE 4 6 2 3 1004.9 1004.6 15.8
20/04:30pm 25.8 29.7 22.9 84 2.0 E 7 15 4 8 1004.9 1004.6 15.8
20/04:21pm 25.2 26.1 22.7 86 1.7 E 22 35 12 19 1005.0 1004.7 15.8
20/04:06pm 27.2 30.9 23.9 82 2.3 E 11 26 6 14 1005.6 1005.3 4.0
20/04:00pm 28.8 34.8 26.1 85 1.9 ENE 6 9 3 5 1005.3 1005.0 1.6
20/03:30pm 29.3 33.5 25.3 79 2.8 NE 13 20 7 11 1005.1 1004.8 0.2
20/03:00pm 33.5 36.8 23.8 57 6.8 E 13 20 7 11 1004.6 1004.3 0.2
20/02:30pm 33.1 36.5 24.1 59 6.3 ESE 13 20 7 11 1005.0 1004.7 0.2
20/02:00pm 32.9 35.5 23.9 59 6.3 E 17 28 9 15 1005.5 1005.2 0.2
20/01:30pm 33.4 36.5 24.1 58 6.5 E 15 24 8 13 1005.9 1005.6 0.2
20/01:00pm 32.5 35.7 24.4 62 5.7 E 15 22 8 12 1006.4 1006.1 0.2
20/12:30pm 32.8 36.8 24.4 61 5.9 ESE 11 19 6 10 1006.7 1006.4 0.2
20/12:00pm 31.6 35.5 24.3 65 5.1 E 11 19 6 10 1007.0 1006.7 0.2
20/11:30am 31.2 34.7 24.2 66 4.9 ESE 13 20 7 11 1007.4 1007.1 0.2
20/11:00am 30.3 34.6 24.3 70 4.2 ESE 9 11 5 6 1007.6 1007.3 0.0
20/10:30am 29.8 34.2 24.4 73 3.8 S 9 13 5 7 1007.9 1007.6 0.0
20/10:00am 29.6 34.0 24.4 73 3.6 SSE 9 13 5 7 1008.1 1007.8 0.0
20/09:30am 29.0 34.1 24.9 78 2.9 SE 7 11 4 6 1008.3 1008.0 0.0
20/09:00am 28.5 33.1 24.8 80 2.6 SSE 9 11 5 6 1008.3 1008.0 3.6
20/08:30am 27.5 32.8 25.2 87 1.6 SE 7 11 4 6 1008.0 1007.7 3.6
20/08:00am 27.0 31.7 25.0 89 1.4 SE 9 13 5 7 1007.9 1007.6 3.6
20/07:30am 26.4 31.2 25.1 92 0.9 SE 9 13 5 7 1007.6 1007.3 3.6
20/07:00am 25.8 30.6 25.1 96 0.5 SE 9 11 5 6 1007.2 1006.9 3.6
20/06:30am 25.6 30.7 24.9 96 0.5 SE 7 9 4 5 1006.8 1006.5 3.6
20/06:00am 25.8 30.9 24.9 95 0.6 SSE 7 9 4 5 1006.3 1006.0 3.6
20/05:30am 25.8 30.5 24.9 95 0.6 SSE 9 11 5 6 1006.0 1005.7 3.6
20/05:00am 25.7 31.3 24.8 95 0.6 SSE 4 4 2 2 1006.1 1005.8 3.6
20/04:30am 25.7 30.8 24.7 94 0.7 SE 6 7 3 4 1006.2 1005.9 3.6
20/04:00am 25.7 31.0 25.0 96 0.5 SE 6 6 3 3 1006.6 1006.3 3.6
20/03:30am 25.9 31.6 25.0 95 0.6 SE 4 6 2 3 1006.8 1006.5 3.6
20/03:00am 25.8 31.6 25.1 96 0.5 SE 4 6 2 3 1006.6 1006.3 3.6
20/02:30am 25.8 32.4 25.2 96 0.4 CALM 0 0 0 0 1006.5 1006.2 3.6
20/02:00am 25.8 31.6 25.2 96 0.4 E 4 4 2 2 1006.8 1006.5 3.6
20/01:30am 26.0 31.2 25.1 95 0.6 E 7 7 4 4 1007.1 1006.8 3.6
20/01:00am 26.0 31.5 25.3 96 0.5 ESE 6 7 3 4 1007.6 1007.3 3.6
20/12:30am 26.1 31.5 25.2 95 0.6 SE 6 7 3 4 1007.6 1007.3 3.6
20/12:00am 26.2 32.0 25.2 94 0.7 ESE 4 6 2 3 1008.0 1007.7 3.6
 
Date/Time
CST
Temp
°C
App
Temp
°C
Dew
Point
°C
Rel
Hum
%
Delta-T
°C
Wind Press
QNH
hPa
Press
MSL
hPa
Rain since
9am
mm
Dir  Spd
km/h
Gust
km/h
Spd
kts
Gust
kts
19/11:30pm 26.3 31.8 25.3 94 0.7 SE 6 7 3 4 1008.3 1008.0 3.6
19/11:00pm 26.5 31.5 25.4 94 0.8 SE 9 11 5 6 1008.7 1008.4 3.6
19/10:30pm 26.6 31.3 25.5 94 0.8 SE 11 15 6 8 1009.0 1008.7 3.6
19/10:00pm 26.8 32.0 25.7 94 0.8 SE 9 11 5 6 1009.0 1008.7 3.6
19/09:30pm 27.1 34.1 25.8 93 0.9 CALM 0 2 0 1 1008.7 1008.4 3.6
19/09:00pm 27.2 34.4 26.2 94 0.7 CALM 0 0 0 0 1008.3 1008.0 3.6
19/08:30pm 27.3 34.6 26.3 94 0.7 CALM 0 0 0 0 1007.7 1007.4 3.6
19/08:00pm 27.4 34.9 26.6 95 0.6 CALM 0 0 0 0 1007.3 1007.0 3.6
19/07:30pm 27.8 35.0 26.1 90 1.2 CALM 0 0 0 0 1006.9 1006.6 3.6
19/07:00pm 28.1 34.9 25.6 86 1.8 CALM 0 0 0 0 1006.5 1006.2 3.6
19/06:30pm 28.2 35.2 25.8 87 1.7 CALM 0 2 0 1 1005.8 1005.5 3.6
19/06:00pm 28.3 35.3 25.8 86 1.8 CALM 0 0 0 0 1005.5 1005.2 3.6
19/05:30pm 28.1 34.8 26.0 88 1.5 SW 2 4 1 2 1005.6 1005.3 3.6
19/05:00pm 28.3 34.3 25.5 85 2.0 W 4 6 2 3 1005.7 1005.4 3.6
19/04:30pm 28.1 34.7 25.8 87 1.6 E 2 6 1 3 1006.2 1005.9 3.4
19/04:00pm 28.3 34.4 26.2 88 1.5 NNW 6 7 3 4 1006.5 1006.2 2.8
19/03:30pm 28.3 33.9 26.3 89 1.4 N 9 13 5 7 1006.6 1006.3 2.4
19/03:00pm 28.3 33.4 26.1 88 1.6 NNW 11 19 6 10 1006.4 1006.1 2.2
19/02:30pm 28.6 33.9 25.9 85 1.9 NNW 9 15 5 8 1007.0 1006.7 2.2
19/02:13pm 27.9 32.4 25.8 88 1.5 N 13 19 7 10 1006.8 1006.5 1.8
19/02:00pm 28.4 32.9 26.4 89 1.4 N 15 20 8 11 1007.1 1006.8 0.6
19/01:30pm 30.8 34.2 24.1 67 4.7 NNW 13 19 7 10 1007.2 1006.9 0.0
19/01:00pm 30.7 34.1 24.1 68 4.6 NW 13 17 7 9 1007.6 1007.3 0.0
19/12:30pm 30.7 34.3 23.8 66 4.8 NW 11 17 6 9 1008.1 1007.8 0.0
19/12:00pm 31.1 34.8 23.9 65 5.0 NW 11 15 6 8 1008.2 1007.9 0.0
19/11:30am 32.3 36.7 23.5 59 6.1 N 6 9 3 5 1008.6 1008.3 0.0
19/11:00am 31.1 36.2 23.3 63 5.4 NW 2 6 1 3 1008.7 1008.4 0.0
19/10:30am 31.0 35.8 24.1 66 4.8 NNE 6 11 3 6 1008.9 1008.6 0.0
19/10:00am 29.8 34.5 23.9 70 4.1 ENE 6 11 3 6 1009.1 1008.8 0.0
19/09:30am 28.8 32.7 23.6 73 3.6 NE 9 11 5 6 1009.1 1008.8 0.0
19/09:00am 28.1 32.1 23.8 77 3.0 NE 9 13 5 7 1009.0 1008.7 0.2
19/08:30am 27.8 32.1 24.2 81 2.5 E 9 11 5 6 1008.9 1008.6 0.2

Latest Capital City Observations: Canberra | Sydney | Melbourne | Brisbane | Adelaide | Perth | Hobart | Darwin

Other Formats:

Comma delimited format used in spreadsheet applications
http://www.bom.gov.au/fwo/IDD60901/IDD60901.94120.axf

JavaScript Object Notation format (JSON) in row-major order
http://www.bom.gov.au/fwo/IDD60901/IDD60901.94120.json